Time;durP1;ratioP1;P1;durP2;ratioP2;P2;SDS_P1;SDS_P2;PMS_P1;PMS_P2;Temp;Humidity;BMP_temperature;BMP_pressure;BME280_temperature;BME280_humidity;BME280_pressure;Samples;Min_cycle;Max_cycle;Signal;HPM_P1;HPM_P2
2022/07/09 00:00:41;;;;;;;2.47;1.27;;;13.80;92.90;;;;;;5082429;28;20218;-47
2022/07/09 00:03:06;;;;;;;4.50;1.65;;;13.80;92.80;;;;;;5079560;28;20114;-49
2022/07/09 00:05:32;;;;;;;1.85;1.30;;;13.70;93.00;;;;;;5083128;28;20037;-46
2022/07/09 00:07:57;;;;;;;2.35;1.35;;;13.70;93.20;;;;;;5075538;28;20032;-48
2022/07/09 00:10:23;;;;;;;1.13;0.90;;;13.60;93.10;;;;;;5082000;28;20040;-46
2022/07/09 00:12:48;;;;;;;2.13;1.20;;;13.60;93.30;;;;;;5066544;28;20024;-45
2022/07/09 00:15:14;;;;;;;6.40;1.30;;;13.50;93.60;;;;;;5074347;28;20028;-47
2022/07/09 00:17:39;;;;;;;2.75;1.60;;;13.40;93.50;;;;;;5073202;28;20404;-46
2022/07/09 00:20:05;;;;;;;2.90;1.85;;;13.40;94.30;;;;;;5093204;28;20365;-48
2022/07/09 00:22:32;;;;;;;2.58;1.23;;;13.40;94.80;;;;;;5077290;28;20036;-46
2022/07/09 00:24:59;;;;;;;4.78;2.00;;;13.30;94.50;;;;;;5081667;28;20131;-46
2022/07/09 00:27:24;;;;;;;3.05;1.25;;;13.30;94.80;;;;;;5081705;28;20667;-48
2022/07/09 00:29:50;;;;;;;3.45;1.55;;;13.20;95.40;;;;;;5083350;28;20031;-46
2022/07/09 00:32:16;;;;;;;4.85;1.60;;;13.20;96.00;;;;;;5073127;28;20036;-46
2022/07/09 00:34:41;;;;;;;4.25;1.90;;;13.20;96.70;;;;;;5076390;28;20039;-45
2022/07/09 00:37:06;;;;;;;2.55;1.17;;;13.10;96.90;;;;;;5068533;28;20551;-48
2022/07/09 00:39:32;;;;;;;4.28;1.30;;;13.10;96.70;;;;;;5067322;28;20099;-46
2022/07/09 00:42:04;;;;;;;2.50;1.40;;;13.10;96.80;;;;;;5066642;28;20504;-46
2022/07/09 00:44:29;;;;;;;7.22;2.13;;;13.00;99.20;;;;;;5066838;28;20032;-46
2022/07/09 00:46:55;;;;;;;2.17;1.33;;;13.00;98.60;;;;;;5095004;28;20031;-46
2022/07/09 00:49:20;;;;;;;2.30;1.58;;;13.00;98.60;;;;;;5084180;28;20039;-49
2022/07/09 00:51:47;;;;;;;5.95;1.25;;;13.00;99.50;;;;;;5067535;28;20039;-46
2022/07/09 00:54:13;;;;;;;2.65;1.27;;;12.90;98.40;;;;;;5066834;28;20047;-45
2022/07/09 00:56:39;;;;;;;3.20;1.35;;;12.90;99.60;;;;;;5067249;28;20033;-46
2022/07/09 00:59:09;;;;;;;3.40;2.33;;;12.80;98.60;;;;;;5066811;28;20020;-48
2022/07/09 01:01:36;;;;;;;2.75;1.40;;;12.80;99.00;;;;;;5066920;28;20597;-47
2022/07/09 01:04:01;;;;;;;9.82;1.50;;;12.70;99.00;;;;;;5069394;28;20040;-51
2022/07/09 01:06:27;;;;;;;4.57;1.48;;;12.70;99.90;;;;;;5088535;28;20400;-46
2022/07/09 01:08:53;;;;;;;2.50;1.65;;;12.70;99.90;;;;;;5071258;28;20043;-49
2022/07/09 01:11:18;;;;;;;2.53;2.13;;;12.70;99.90;;;;;;5092573;28;20036;-46
2022/07/09 01:13:44;;;;;;;5.15;1.90;;;12.70;99.90;;;;;;5082026;28;20762;-47
2022/07/09 01:16:15;;;;;;;4.05;1.55;;;12.70;99.90;;;;;;5066742;28;20948;-47
2022/07/09 01:18:44;;;;;;;3.97;1.67;;;12.70;99.90;;;;;;5074888;28;20052;-45
2022/07/09 01:21:10;;;;;;;5.55;2.08;;;12.70;99.90;;;;;;5082854;28;20070;-47
2022/07/09 01:23:36;;;;;;;4.97;2.10;;;12.60;99.90;;;;;;5087001;28;20519;-46
2022/07/09 01:26:01;;;;;;;3.00;1.60;;;12.60;99.90;;;;;;5076675;28;20041;-46
2022/07/09 01:28:27;;;;;;;3.40;1.77;;;12.60;99.90;;;;;;5088491;28;20047;-44
2022/07/09 01:30:52;;;;;;;3.20;1.52;;;12.60;99.90;;;;;;5097359;28;20048;-45
2022/07/09 01:33:18;;;;;;;4.13;1.95;;;12.50;99.90;;;;;;5088412;28;20032;-44
2022/07/09 01:35:43;;;;;;;6.78;2.13;;;12.50;99.90;;;;;;5079896;28;20514;-45
2022/07/09 01:38:09;;;;;;;4.28;1.77;;;12.50;99.90;;;;;;5107820;28;20042;-49
2022/07/09 01:40:34;;;;;;;5.40;2.15;;;12.40;99.90;;;;;;5075475;28;20097;-45
2022/07/09 01:43:00;;;;;;;4.07;2.15;;;12.40;99.90;;;;;;5107740;28;20034;-45
2022/07/09 01:45:25;;;;;;;4.32;1.88;;;12.40;99.90;;;;;;5091394;28;20105;-48
2022/07/09 01:47:51;;;;;;;11.00;2.20;;;12.40;99.90;;;;;;5112751;28;20077;-47
2022/07/09 01:50:16;;;;;;;7.95;1.92;;;12.30;99.90;;;;;;5101023;28;20030;-45
2022/07/09 01:52:42;;;;;;;4.18;2.13;;;12.30;99.90;;;;;;5093381;28;20484;-49
2022/07/09 01:55:08;;;;;;;6.03;1.98;;;12.30;99.90;;;;;;5110418;28;20020;-46
2022/07/09 01:57:33;;;;;;;6.35;2.20;;;12.20;99.90;;;;;;5093250;28;20055;-50
2022/07/09 01:59:59;;;;;;;5.07;1.83;;;12.20;99.90;;;;;;5107953;28;20511;-44
2022/07/09 02:02:24;;;;;;;4.15;1.77;;;12.20;99.90;;;;;;5113171;28;20031;-45
2022/07/09 02:04:50;;;;;;;4.95;1.77;;;12.10;99.90;;;;;;5097229;28;20065;-46
2022/07/09 02:07:16;;;;;;;3.10;2.13;;;12.10;99.90;;;;;;5087058;28;20114;-44
2022/07/09 02:09:41;;;;;;;6.65;2.20;;;12.00;99.90;;;;;;5100326;28;20667;-44
2022/07/09 02:12:07;;;;;;;6.80;2.10;;;12.00;99.90;;;;;;5072487;28;20023;-44
2022/07/09 02:14:32;;;;;;;3.42;2.00;;;12.00;99.90;;;;;;5095046;28;20025;-44
2022/07/09 02:16:58;;;;;;;5.60;2.20;;;11.90;99.90;;;;;;5072176;28;20400;-44
2022/07/09 02:19:23;;;;;;;4.95;2.50;;;11.90;99.90;;;;;;5104903;28;20028;-45
2022/07/09 02:21:49;;;;;;;6.57;1.80;;;11.90;99.90;;;;;;5072336;28;20503;-45
2022/07/09 02:24:15;;;;;;;8.18;2.13;;;11.80;99.90;;;;;;5107393;28;20031;-44
2022/07/09 02:26:40;;;;;;;4.82;1.77;;;11.80;99.90;;;;;;5088499;28;20437;-44
2022/07/09 02:29:07;;;;;;;8.35;1.92;;;11.70;99.90;;;;;;5092826;28;20548;-45
2022/07/09 02:31:32;;;;;;;8.27;1.77;;;11.70;99.90;;;;;;5072111;28;20045;-44
2022/07/09 02:33:58;;;;;;;9.15;2.38;;;11.60;99.90;;;;;;5111163;28;20031;-45
2022/07/09 02:36:24;;;;;;;6.40;2.28;;;11.60;99.90;;;;;;5071957;28;20031;-45
2022/07/09 02:38:49;;;;;;;3.08;1.83;;;11.60;99.90;;;;;;5111354;28;20118;-48
2022/07/09 02:41:15;;;;;;;5.55;1.92;;;11.60;99.90;;;;;;5071656;28;20060;-45
2022/07/09 02:43:43;;;;;;;5.78;1.95;;;11.50;99.90;;;;;;5111185;28;20035;-45
2022/07/09 02:46:12;;;;;;;6.22;2.28;;;11.40;99.90;;;;;;5085663;28;20081;-44
2022/07/09 02:48:38;;;;;;;4.22;1.85;;;11.40;99.90;;;;;;5091888;28;20039;-49
2022/07/09 02:51:04;;;;;;;6.22;2.42;;;11.40;99.90;;;;;;5075156;28;20404;-44
2022/07/09 02:53:30;;;;;;;9.55;2.58;;;11.40;99.90;;;;;;5111117;28;20119;-44
2022/07/09 02:55:55;;;;;;;4.72;2.17;;;11.30;99.90;;;;;;5074255;28;20506;-44
2022/07/09 02:58:21;;;;;;;4.20;2.10;;;11.30;99.90;;;;;;5109835;28;20091;-45
2022/07/09 03:00:47;;;;;;;3.83;2.05;;;11.30;99.90;;;;;;5075474;28;20492;-44
2022/07/09 03:03:12;;;;;;;4.95;2.53;;;11.30;99.90;;;;;;5110902;28;20074;-45
2022/07/09 03:05:38;;;;;;;7.05;2.30;;;11.30;99.90;;;;;;5076601;28;20059;-48
2022/07/09 03:08:04;;;;;;;3.97;2.25;;;11.30;99.90;;;;;;5110669;28;20070;-45
2022/07/09 03:10:29;;;;;;;6.13;2.20;;;11.20;99.90;;;;;;5077617;28;20078;-44
2022/07/09 03:12:55;;;;;;;5.63;3.25;;;11.30;99.90;;;;;;5110457;28;20058;-44
2022/07/09 03:15:20;;;;;;;4.82;2.22;;;11.20;99.90;;;;;;5075117;28;20032;-45
2022/07/09 03:17:47;;;;;;;6.20;2.58;;;11.20;99.90;;;;;;5110551;28;20391;-44
2022/07/09 03:20:13;;;;;;;4.00;2.42;;;11.20;99.90;;;;;;5079267;28;20044;-45
2022/07/09 03:22:39;;;;;;;8.15;2.42;;;11.20;99.90;;;;;;5110425;28;20437;-44
2022/07/09 03:25:06;;;;;;;9.40;2.10;;;11.20;99.90;;;;;;5080379;28;20024;-46
2022/07/09 03:27:32;;;;;;;5.63;2.50;;;11.20;99.90;;;;;;5095173;28;20067;-45
2022/07/09 03:29:57;;;;;;;6.68;2.20;;;11.20;99.90;;;;;;5092120;28;20052;-45
2022/07/09 03:32:24;;;;;;;7.50;2.22;;;11.20;99.90;;;;;;5110075;28;20031;-44
2022/07/09 03:34:49;;;;;;;3.67;2.17;;;11.20;99.90;;;;;;5082571;28;20070;-48
2022/07/09 03:37:15;;;;;;;4.93;2.47;;;11.20;99.90;;;;;;5071005;28;20029;-44
2022/07/09 03:39:40;;;;;;;7.13;2.15;;;11.20;99.90;;;;;;5096123;28;20505;-45
2022/07/09 03:42:06;;;;;;;5.07;2.90;;;11.40;99.90;;;;;;5070861;28;20025;-47
2022/07/09 03:44:33;;;;;;;6.53;2.45;;;11.40;99.90;;;;;;5098863;28;20512;-45
2022/07/09 03:46:59;;;;;;;8.07;2.40;;;11.70;99.90;;;;;;5090852;28;20024;-45
2022/07/09 03:49:24;;;;;;;6.50;2.25;;;12.20;99.90;;;;;;5085150;28;20036;-45
2022/07/09 03:51:50;;;;;;;5.05;2.20;;;12.30;99.90;;;;;;5070733;28;20381;-45
2022/07/09 03:54:15;;;;;;;5.82;2.35;;;12.70;99.90;;;;;;5102975;28;20369;-47
2022/07/09 03:56:41;;;;;;;5.70;2.78;;;13.20;99.90;;;;;;5070683;28;20060;-46
2022/07/09 03:59:06;;;;;;;3.38;2.08;;;14.30;99.90;;;;;;5105533;28;20392;-49
2022/07/09 04:01:32;;;;;;;4.40;2.05;;;15.10;99.90;;;;;;5070571;28;20036;-47
2022/07/09 04:03:58;;;;;;;4.10;2.10;;;16.00;97.10;;;;;;5109588;28;20028;-48
2022/07/09 04:06:24;;;;;;;4.47;1.98;;;16.00;95.00;;;;;;5070341;28;20033;-45
2022/07/09 04:08:49;;;;;;;6.88;1.90;;;15.80;92.70;;;;;;5109329;28;20427;-50
2022/07/09 04:11:15;;;;;;;5.13;2.03;;;15.70;93.00;;;;;;5070103;28;20107;-45
2022/07/09 04:13:41;;;;;;;6.78;1.90;;;15.50;92.80;;;;;;5099781;28;20147;-44
2022/07/09 04:16:06;;;;;;;5.38;2.10;;;15.30;94.40;;;;;;5070580;28;20032;-45
2022/07/09 04:18:33;;;;;;;5.47;2.10;;;15.20;94.30;;;;;;5109578;28;20452;-44
2022/07/09 04:20:58;;;;;;;7.03;2.17;;;15.00;94.30;;;;;;5072019;28;20041;-44
2022/07/09 04:23:24;;;;;;;4.63;1.70;;;14.90;94.10;;;;;;5109200;28;20032;-45
2022/07/09 04:25:50;;;;;;;9.80;2.38;;;14.80;94.40;;;;;;5075179;28;20035;-50
2022/07/09 04:28:17;;;;;;;5.40;2.25;;;14.70;94.60;;;;;;5090570;28;20043;-44
2022/07/09 04:30:43;;;;;;;5.07;2.00;;;14.60;94.70;;;;;;5095914;28;20036;-46
2022/07/09 04:33:08;;;;;;;5.00;1.98;;;14.60;94.80;;;;;;5090561;28;20085;-47
2022/07/09 04:35:35;;;;;;;5.22;1.88;;;14.50;94.80;;;;;;5081234;28;20041;-45
2022/07/09 04:38:01;;;;;;;6.15;2.38;;;14.40;95.00;;;;;;5109439;28;20023;-45
2022/07/09 04:40:27;;;;;;;3.00;1.80;;;14.40;95.10;;;;;;5075747;28;20043;-45
2022/07/09 04:42:52;;;;;;;3.25;1.65;;;14.50;94.90;;;;;;5108761;28;20110;-47
2022/07/09 04:45:18;;;;;;;5.13;2.22;;;14.50;94.80;;;;;;5083563;28;20050;-47
2022/07/09 04:47:43;;;;;;;4.15;2.08;;;14.60;94.80;;;;;;5089562;28;20081;-47
2022/07/09 04:50:10;;;;;;;6.38;2.13;;;14.70;93.80;;;;;;5087747;28;20040;-45
2022/07/09 04:52:36;;;;;;;4.07;1.80;;;14.70;93.80;;;;;;5109129;28;20469;-45
2022/07/09 04:55:02;;;;;;;3.95;1.83;;;14.70;93.40;;;;;;5096779;28;20044;-44
2022/07/09 04:57:28;;;;;;;4.53;1.63;;;14.70;93.30;;;;;;5090086;27;20031;-45
2022/07/09 05:00:00;;;;;;;4.80;1.88;;;14.80;92.90;;;;;;5091727;28;20377;-47
2022/07/09 05:02:26;;;;;;;3.58;1.90;;;15.00;92.60;;;;;;5069321;28;20549;-45
2022/07/09 05:04:51;;;;;;;5.68;2.00;;;15.70;90.80;;;;;;5091759;28;20115;-47
2022/07/09 05:07:17;;;;;;;3.65;1.70;;;16.60;86.10;;;;;;5069450;28;20020;-45
2022/07/09 05:09:42;;;;;;;6.95;1.90;;;17.30;80.80;;;;;;5094144;28;20515;-45
2022/07/09 05:12:10;;;;;;;4.97;1.63;;;17.50;76.80;;;;;;5069017;28;20380;-45
2022/07/09 05:14:36;;;;;;;4.07;1.45;;;17.50;75.80;;;;;;5089071;28;20091;-45
2022/07/09 05:17:02;;;;;;;3.20;1.67;;;17.40;75.70;;;;;;5069145;28;20029;-48
2022/07/09 05:19:28;;;;;;;4.03;1.40;;;17.40;74.40;;;;;;5098176;28;20519;-45
2022/07/09 05:21:53;;;;;;;2.67;1.48;;;17.20;73.60;;;;;;5068435;28;20025;-45
2022/07/09 05:24:19;;;;;;;4.78;1.60;;;17.10;72.90;;;;;;5100861;28;20467;-45
2022/07/09 05:26:44;;;;;;;4.45;1.73;;;17.00;74.50;;;;;;5085837;28;20107;-44
2022/07/09 05:29:10;;;;;;;3.45;1.55;;;16.90;73.40;;;;;;5086223;28;20655;-50
2022/07/09 05:31:35;;;;;;;3.83;2.00;;;16.70;72.00;;;;;;5068818;28;20063;-48
2022/07/09 05:34:02;;;;;;;3.25;1.45;;;16.70;69.40;;;;;;5105735;28;20028;-45
2022/07/09 05:36:28;;;;;;;5.00;1.70;;;16.60;72.60;;;;;;5068852;28;20025;-47
2022/07/09 05:38:55;;;;;;;3.78;2.10;;;16.60;72.30;;;;;;5108167;28;20107;-56
2022/07/09 05:41:22;;;;;;;3.00;1.80;;;16.60;70.40;;;;;;5078688;28;20066;-52
2022/07/09 05:43:47;;;;;;;4.20;1.77;;;16.70;71.40;;;;;;5080227;28;20501;-43
2022/07/09 05:46:13;;;;;;;3.60;1.35;;;16.80;70.90;;;;;;5093745;28;20035;-43
2022/07/09 05:48:38;;;;;;;2.80;1.63;;;16.90;70.60;;;;;;5082993;28;20123;-42
2022/07/09 05:51:04;;;;;;;3.85;1.90;;;16.90;70.70;;;;;;5107864;28;20039;-42
2022/07/09 05:53:30;;;;;;;6.18;1.42;;;16.90;70.70;;;;;;5076718;28;20037;-41
2022/07/09 05:55:56;;;;;;;2.95;1.42;;;17.00;69.70;;;;;;5107668;28;20034;-42
2022/07/09 05:58:21;;;;;;;4.10;1.80;;;17.10;69.20;;;;;;5077981;28;20095;-41
2022/07/09 06:00:47;;;;;;;4.30;1.77;;;17.10;68.10;;;;;;5107746;28;20071;-41
2022/07/09 06:03:12;;;;;;;4.72;1.50;;;17.20;68.10;;;;;;5078893;28;20484;-42
2022/07/09 06:05:38;;;;;;;4.47;1.77;;;17.20;67.30;;;;;;5107723;28;20031;-41
2022/07/09 06:08:03;;;;;;;3.92;1.98;;;17.20;67.50;;;;;;5080406;28;20028;-42
2022/07/09 06:10:29;;;;;;;3.05;1.13;;;17.20;67.60;;;;;;5068551;28;20062;-42
2022/07/09 06:12:54;;;;;;;4.70;1.50;;;17.30;66.60;;;;;;5093852;28;20028;-41
2022/07/09 06:15:20;;;;;;;3.10;1.70;;;17.30;64.80;;;;;;5065019;28;20029;-49
2022/07/09 06:17:45;;;;;;;3.15;1.63;;;17.20;64.40;;;;;;5096535;28;20393;-42
2022/07/09 06:20:11;;;;;;;3.38;1.27;;;17.30;65.90;;;;;;5068583;28;20745;-43
2022/07/09 06:22:38;;;;;;;2.60;1.30;;;17.30;66.30;;;;;;5098983;28;20032;-42
2022/07/09 06:25:05;;;;;;;5.03;1.80;;;17.40;65.00;;;;;;5068695;28;20058;-42
2022/07/09 06:27:30;;;;;;;3.33;1.52;;;17.50;65.00;;;;;;5088066;28;20036;-42
2022/07/09 06:29:56;;;;;;;1.77;1.48;;;17.50;64.70;;;;;;5072360;28;20041;-42
2022/07/09 06:32:21;;;;;;;3.97;1.77;;;17.60;63.90;;;;;;5095137;28;20051;-45
2022/07/09 06:34:47;;;;;;;5.50;1.33;;;17.60;63.70;;;;;;5111356;28;20061;-42
2022/07/09 06:37:12;;;;;;;3.92;1.63;;;17.60;64.20;;;;;;5110442;28;20059;-42
2022/07/09 06:39:50;;;;;;;6.90;1.70;;;17.70;63.60;;;;;;5096005;28;20027;-42
2022/07/09 06:42:17;;;;;;;2.80;1.65;;;17.70;63.50;;;;;;5112730;28;20499;-42
2022/07/09 06:44:43;;;;;;;3.10;1.33;;;17.80;63.80;;;;;;5101872;28;20076;-42
2022/07/09 06:47:08;;;;;;;2.47;1.35;;;17.90;63.40;;;;;;5092193;28;20480;-43
2022/07/09 06:49:34;;;;;;;2.97;1.30;;;18.00;62.30;;;;;;5110076;28;20032;-42
2022/07/09 06:52:01;;;;;;;2.30;1.60;;;18.10;62.40;;;;;;5112567;28;20480;-42
2022/07/09 06:54:26;;;;;;;3.45;1.70;;;18.10;61.50;;;;;;5083724;28;20089;-42
2022/07/09 06:56:52;;;;;;;4.05;1.98;;;18.10;61.50;;;;;;5091951;28;20032;-42
2022/07/09 06:59:22;;;;;;;2.97;1.55;;;18.00;60.50;;;;;;5077401;28;20047;-42
2022/07/09 07:01:47;;;;;;;2.80;1.38;;;18.00;60.70;;;;;;5112034;28;20055;-42
2022/07/09 07:04:14;;;;;;;2.15;1.60;;;18.00;61.10;;;;;;5075055;28;20063;-42
2022/07/09 07:06:43;;;;;;;3.85;1.40;;;17.90;60.80;;;;;;5091893;28;20039;-43
2022/07/09 07:09:09;;;;;;;2.72;1.45;;;18.00;61.40;;;;;;5075092;28;20032;-42
2022/07/09 07:11:35;;;;;;;2.70;1.35;;;18.00;60.90;;;;;;5110644;28;20030;-42
2022/07/09 07:14:00;;;;;;;4.28;1.80;;;18.10;60.90;;;;;;5088507;28;20032;-42
2022/07/09 07:16:26;;;;;;;3.28;1.52;;;18.10;61.00;;;;;;5092209;28;20057;-42
2022/07/09 07:18:52;;;;;;;5.72;1.65;;;18.20;59.50;;;;;;5084608;28;20028;-42
2022/07/09 07:21:17;;;;;;;3.78;1.55;;;18.20;60.10;;;;;;5110827;28;20059;-42
2022/07/09 07:23:43;;;;;;;4.55;1.60;;;18.30;59.90;;;;;;5078872;28;20420;-42
2022/07/09 07:26:08;;;;;;;4.15;1.52;;;18.30;59.50;;;;;;5106587;28;20024;-42
2022/07/09 07:28:34;;;;;;;2.05;1.40;;;18.30;59.30;;;;;;5109167;28;20047;-43
2022/07/09 07:31:00;;;;;;;2.35;1.63;;;18.40;58.40;;;;;;5102568;28;20040;-43
2022/07/09 07:33:25;;;;;;;2.53;1.52;;;18.60;58.00;;;;;;5098445;28;20085;-42
2022/07/09 07:35:51;;;;;;;2.33;1.40;;;18.70;57.70;;;;;;5091954;28;20504;-42
2022/07/09 07:38:16;;;;;;;2.00;1.40;;;18.80;57.20;;;;;;5093698;28;20028;-42
2022/07/09 07:40:42;;;;;;;3.45;1.48;;;18.90;57.10;;;;;;5071061;28;20032;-42
2022/07/09 07:43:11;;;;;;;2.85;1.45;;;19.10;56.10;;;;;;5107183;28;20055;-42
2022/07/09 07:45:36;;;;;;;2.45;1.40;;;19.50;54.60;;;;;;5102424;28;20024;-44
2022/07/09 07:48:02;;;;;;;3.42;1.40;;;20.20;52.30;;;;;;5108786;28;20564;-42
2022/07/09 07:50:27;;;;;;;2.85;1.42;;;20.80;49.50;;;;;;5111461;28;20388;-43
2022/07/09 07:52:53;;;;;;;3.05;1.23;;;21.70;46.00;;;;;;5093716;28;20027;-43
2022/07/09 07:55:18;;;;;;;4.65;1.60;;;22.40;43.80;;;;;;5111447;28;20058;-43
2022/07/09 07:57:44;;;;;;;2.92;1.40;;;23.10;39.70;;;;;;5086579;28;20077;-42
2022/07/09 08:00:10;;;;;;;2.40;1.40;;;23.60;39.00;;;;;;5070520;28;20032;-43
2022/07/09 08:02:35;;;;;;;4.22;1.50;;;23.80;35.50;;;;;;5102681;28;20119;-42
2022/07/09 08:05:01;;;;;;;2.30;1.17;;;23.90;35.60;;;;;;5070606;28;20115;-43
2022/07/09 08:07:26;;;;;;;1.90;1.40;;;24.10;33.80;;;;;;5107528;28;20032;-43
2022/07/09 08:09:52;;;;;;;2.40;1.38;;;24.50;33.20;;;;;;5111152;28;20055;-43
2022/07/09 08:12:18;;;;;;;1.00;0.85;;;24.70;31.40;;;;;;5091158;27;20089;-43
2022/07/09 08:14:44;;;;;;;2.60;1.33;;;24.70;30.80;;;;;;5061196;28;20391;-42
2022/07/09 08:17:09;;;;;;;3.47;1.50;;;24.50;30.20;;;;;;5109284;28;20078;-46
2022/07/09 08:19:35;;;;;;;2.00;1.17;;;24.30;30.10;;;;;;5070796;28;20056;-42
2022/07/09 08:22:00;;;;;;;2.05;0.85;;;24.00;30.60;;;;;;5108131;28;20028;-43
2022/07/09 08:24:26;;;;;;;3.85;1.45;;;23.60;28.60;;;;;;5071586;28;20025;-42
2022/07/09 08:26:52;;;;;;;2.78;1.30;;;23.00;31.30;;;;;;5104245;28;20027;-42
2022/07/09 08:29:18;;;;;;;2.20;1.17;;;22.70;32.40;;;;;;5090713;28;20115;-42
2022/07/09 08:31:43;;;;;;;2.85;1.45;;;22.40;33.10;;;;;;5086951;28;20094;-43
2022/07/09 08:34:09;;;;;;;4.65;1.30;;;22.10;32.80;;;;;;5075593;28;20032;-43
2022/07/09 08:36:34;;;;;;;3.08;1.35;;;21.80;33.10;;;;;;5106974;28;20042;-43
2022/07/09 08:38:59;;;;;;;2.25;1.30;;;21.60;34.10;;;;;;5090656;28;20091;-43
2022/07/09 08:41:25;;;;;;;1.55;0.90;;;21.40;34.80;;;;;;5107286;28;20028;-42
2022/07/09 08:43:51;;;;;;;2.60;1.35;;;21.30;35.30;;;;;;5110348;28;20484;-43
2022/07/09 08:46:18;;;;;;;1.27;0.90;;;21.20;35.60;;;;;;5094807;28;20059;-43
2022/07/09 08:48:44;;;;;;;2.33;1.52;;;21.20;35.80;;;;;;5110186;28;20079;-42
2022/07/09 08:51:11;;;;;;;2.28;1.20;;;21.30;35.60;;;;;;5093386;28;20057;-42
2022/07/09 08:53:42;;;;;;;2.63;1.45;;;21.30;35.20;;;;;;5110205;28;20111;-42
2022/07/09 08:56:08;;;;;;;2.13;1.10;;;21.50;34.90;;;;;;5092026;28;20084;-42
2022/07/09 08:58:33;;;;;;;3.20;1.40;;;21.70;34.80;;;;;;5110392;28;20030;-42
2022/07/09 09:01:00;;;;;;;1.90;1.30;;;21.90;33.90;;;;;;5091777;28;20032;-43
2022/07/09 09:03:25;;;;;;;2.45;1.10;;;22.20;33.70;;;;;;5109957;28;20546;-42
2022/07/09 09:06:05;;;;;;;2.88;1.52;;;22.20;32.10;;;;;;5090316;28;20057;-42
2022/07/09 09:08:43;;;;;;;3.83;1.45;;;22.20;31.20;;;;;;5109815;28;20530;-43
2022/07/09 09:11:31;;;;;;;2.33;1.30;;;22.10;30.80;;;;;;5092390;28;20107;-42
2022/07/09 09:13:57;;;;;;;1.73;1.30;;;22.10;32.20;;;;;;5094041;28;20070;-42
2022/07/09 09:16:23;;;;;;;5.25;1.50;;;21.90;33.20;;;;;;5106784;28;20027;-43
2022/07/09 09:18:51;;;;;;;2.13;1.42;;;21.70;33.40;;;;;;5109636;28;20400;-42
2022/07/09 09:21:23;;;;;;;2.50;0.98;;;21.60;33.80;;;;;;5093901;28;20398;-42
2022/07/09 09:23:53;;;;;;;3.05;1.38;;;21.50;33.30;;;;;;5109693;28;20058;-42
2022/07/09 09:26:21;;;;;;;5.63;1.30;;;21.30;34.50;;;;;;5075450;28;20115;-47
2022/07/09 09:28:59;;;;;;;1.85;1.15;;;21.20;34.50;;;;;;5089350;28;20053;-43
2022/07/09 09:31:30;;;;;;;2.85;1.15;;;21.20;34.40;;;;;;5081411;28;20467;-46
2022/07/09 09:33:58;;;;;;;3.25;1.33;;;21.40;34.50;;;;;;5088973;28;20020;-43
2022/07/09 09:36:34;;;;;;;3.15;1.23;;;21.50;34.40;;;;;;5106690;28;20027;-42
2022/07/09 09:39:20;;;;;;;2.38;1.48;;;21.90;33.20;;;;;;5066783;28;20032;-42
2022/07/09 09:41:50;;;;;;;2.78;1.35;;;22.20;30.10;;;;;;5109207;28;20032;-42
2022/07/09 09:44:29;;;;;;;4.05;1.45;;;22.40;31.30;;;;;;5071452;28;20021;-44
2022/07/09 09:46:55;;;;;;;2.63;1.40;;;22.40;29.50;;;;;;5089397;28;20020;-42
2022/07/09 09:49:21;;;;;;;4.40;1.67;;;22.30;31.30;;;;;;5106621;28;20099;-42
2022/07/09 09:51:55;;;;;;;1.63;1.02;;;22.20;31.60;;;;;;5109434;28;20110;-42
2022/07/09 09:54:22;;;;;;;2.75;1.40;;;21.90;32.10;;;;;;5072565;28;20111;-43
2022/07/09 09:56:49;;;;;;;4.03;1.55;;;21.70;32.20;;;;;;5109391;28;20026;-42
2022/07/09 09:59:16;;;;;;;1.77;1.13;;;21.50;33.10;;;;;;5088861;28;20036;-42
2022/07/09 10:01:42;;;;;;;3.53;1.40;;;21.30;33.80;;;;;;5109109;28;20490;-42
2022/07/09 10:04:12;;;;;;;2.08;1.80;;;21.00;34.90;;;;;;5088334;28;20052;-44
2022/07/09 10:06:38;;;;;;;3.70;2.13;;;20.80;35.80;;;;;;5110163;28;20036;-41
2022/07/09 10:09:07;;;;;;;3.03;2.20;;;20.50;37.00;;;;;;5091978;28;20540;-41
2022/07/09 10:11:47;;;;;;;3.47;2.15;;;20.30;41.50;;;;;;5113557;28;20028;-42
2022/07/09 10:14:24;;;;;;;3.38;1.70;;;20.10;53.30;;;;;;5082804;28;20023;-42
2022/07/09 10:16:51;;;;;;;3.88;1.90;;;19.90;53.00;;;;;;5072503;28;20028;-42
2022/07/09 10:19:26;;;;;;;6.45;1.90;;;19.80;55.60;;;;;;5109608;28;20491;-43
2022/07/09 10:21:54;;;;;;;1.97;1.33;;;19.70;65.40;;;;;;5113020;28;20027;-42
2022/07/09 10:24:33;;;;;;;2.80;1.65;;;19.70;62.00;;;;;;5093723;28;20280;-42
2022/07/09 10:27:07;;;;;;;1.92;1.50;;;19.70;68.30;;;;;;5102269;28;20483;-44
2022/07/09 10:29:34;;;;;;;2.25;1.58;;;19.80;72.00;;;;;;5110322;28;20511;-42
2022/07/09 10:31:59;;;;;;;1.42;1.10;;;19.80;67.00;;;;;;5112535;28;20578;-42
2022/07/09 10:34:31;;;;;;;2.03;1.30;;;19.80;65.20;;;;;;5088603;28;20107;-42
2022/07/09 10:37:01;;;;;;;2.42;1.17;;;19.80;68.40;;;;;;5111907;28;20111;-42
2022/07/09 10:39:27;;;;;;;2.53;1.75;;;19.80;65.90;;;;;;5110128;28;20031;-42
2022/07/09 10:42:06;;;;;;;3.08;1.80;;;19.90;65.10;;;;;;5092656;28;20031;-41
2022/07/09 10:44:40;;;;;;;2.65;1.88;;;20.10;66.60;;;;;;5071943;28;20451;-42
2022/07/09 10:47:06;;;;;;;2.25;1.30;;;20.40;64.20;;;;;;5070370;28;20044;-41
2022/07/09 10:49:36;;;;;;;2.08;1.67;;;20.60;65.20;;;;;;5112458;28;20015;-44
2022/07/09 10:52:02;;;;;;;1.90;1.48;;;20.70;63.00;;;;;;5096069;28;20115;-41
2022/07/09 10:54:28;;;;;;;2.22;1.80;;;20.80;63.10;;;;;;5081220;28;20032;-41
2022/07/09 10:56:54;;;;;;;2.20;1.33;;;20.90;63.60;;;;;;5092684;28;20084;-43
2022/07/09 10:59:21;;;;;;;2.08;1.60;;;21.10;62.00;;;;;;5089264;28;20020;-42
2022/07/09 11:01:47;;;;;;;2.80;1.85;;;21.30;60.30;;;;;;5090514;28;20031;-42
2022/07/09 11:04:29;;;;;;;2.10;1.80;;;21.40;59.40;;;;;;5088903;28;20032;-45
2022/07/09 11:06:55;;;;;;;1.50;1.40;;;21.40;55.70;;;;;;5067291;28;20095;-42
2022/07/09 11:09:22;;;;;;;2.35;1.35;;;21.50;57.00;;;;;;5078585;28;20075;-46
2022/07/09 11:11:47;;;;;;;3.72;1.58;;;21.70;57.20;;;;;;5107303;28;20539;-43
2022/07/09 11:14:13;;;;;;;2.92;1.35;;;22.00;56.00;;;;;;5095939;28;20062;-46
2022/07/09 11:16:39;;;;;;;3.30;1.70;;;22.00;54.40;;;;;;5107218;28;20391;-43
2022/07/09 11:19:19;;;;;;;3.17;1.77;;;22.10;53.50;;;;;;5109292;28;20488;-42
2022/07/09 11:21:45;;;;;;;3.65;1.40;;;22.10;52.20;;;;;;5076423;28;20043;-43
2022/07/09 11:24:18;;;;;;;2.95;1.50;;;22.20;52.10;;;;;;5110443;28;20065;-42
2022/07/09 11:26:44;;;;;;;3.10;1.65;;;22.40;50.60;;;;;;5085993;28;20028;-42
2022/07/09 11:29:10;;;;;;;1.80;1.42;;;22.60;50.70;;;;;;5111819;28;20034;-42
2022/07/09 11:31:37;;;;;;;3.30;1.60;;;22.80;49.30;;;;;;5092824;28;20510;-41
2022/07/09 11:34:12;;;;;;;1.90;1.50;;;22.90;45.90;;;;;;5111620;28;20118;-41
2022/07/09 11:36:40;;;;;;;3.30;1.80;;;22.90;45.90;;;;;;5081782;28;20024;-42
2022/07/09 11:39:06;;;;;;;1.60;1.48;;;23.10;45.10;;;;;;5109207;27;20049;-42
2022/07/09 11:41:44;;;;;;;2.95;1.60;;;23.10;44.20;;;;;;5111633;27;20028;-43
2022/07/09 11:44:13;;;;;;;1.80;1.27;;;23.10;40.90;;;;;;5076681;28;20043;-50
2022/07/09 11:46:39;;;;;;;4.55;2.00;;;23.00;42.80;;;;;;5083811;28;20023;-51
2022/07/09 11:49:15;;;;;;;3.63;1.40;;;22.90;41.20;;;;;;5070583;28;20507;-52
2022/07/09 11:51:41;;;;;;;2.78;1.85;;;22.90;37.60;;;;;;5068071;28;20028;-48
2022/07/09 11:54:07;;;;;;;2.85;1.95;;;22.70;40.90;;;;;;5069697;28;20021;-54
2022/07/09 11:56:45;;;;;;;3.40;1.70;;;22.60;41.10;;;;;;5075794;28;20047;-50
2022/07/09 11:59:11;;;;;;;4.13;1.83;;;22.70;37.40;;;;;;5068937;28;20025;-50
2022/07/09 12:01:38;;;;;;;2.97;1.77;;;22.70;39.60;;;;;;5069671;28;20033;-52
2022/07/09 12:04:04;;;;;;;2.45;1.45;;;22.90;39.40;;;;;;5070750;28;20028;-46
2022/07/09 12:06:30;;;;;;;2.08;1.67;;;22.90;38.90;;;;;;5070359;28;20518;-49
2022/07/09 12:09:00;;;;;;;5.80;2.05;;;23.00;37.60;;;;;;5072636;28;20476;-46
2022/07/09 12:11:27;;;;;;;2.17;1.50;;;23.10;36.70;;;;;;5070364;28;20037;-48
2022/07/09 12:13:52;;;;;;;5.07;2.40;;;23.10;35.60;;;;;;5079037;28;20026;-50
2022/07/09 12:16:18;;;;;;;3.08;1.70;;;23.00;35.30;;;;;;5069322;28;20028;-52
2022/07/09 12:18:43;;;;;;;2.63;1.50;;;23.00;34.90;;;;;;5075537;28;20048;-49
2022/07/09 12:21:09;;;;;;;1.77;1.27;;;23.10;34.50;;;;;;5069416;28;20036;-48
2022/07/09 12:23:34;;;;;;;3.50;1.42;;;23.20;34.00;;;;;;5073875;28;20075;-51
2022/07/09 12:26:00;;;;;;;3.10;1.42;;;23.30;33.00;;;;;;5074057;28;20044;-49
2022/07/09 12:28:25;;;;;;;2.30;1.40;;;23.50;32.80;;;;;;5074209;28;20119;-47
2022/07/09 12:30:51;;;;;;;1.50;1.20;;;23.60;32.30;;;;;;5076796;28;20053;-46
2022/07/09 12:33:16;;;;;;;2.85;1.42;;;23.60;31.90;;;;;;5102234;28;20746;-49
2022/07/09 12:35:42;;;;;;;2.67;1.42;;;23.50;31.80;;;;;;5069237;28;20039;-48
2022/07/09 12:38:07;;;;;;;3.22;1.42;;;23.40;31.60;;;;;;5099816;28;20028;-48
2022/07/09 12:40:33;;;;;;;1.80;1.20;;;23.20;31.30;;;;;;5067260;28;20542;-52
2022/07/09 12:42:58;;;;;;;4.32;1.60;;;23.00;30.10;;;;;;5088779;28;20028;-47
2022/07/09 12:45:24;;;;;;;2.35;1.15;;;22.80;31.00;;;;;;5078548;28;20072;-50